createdAt,value
2018-10-02T00:01:03.386Z,8.10
2018-10-02T00:02:13.333Z,8.10
2018-10-02T00:03:23.130Z,8.10
2018-10-02T00:04:32.924Z,8.10
2018-10-02T00:05:42.484Z,8.10
2018-10-02T00:06:52.331Z,8.10
2018-10-02T00:08:01.879Z,8.20
2018-10-02T00:09:12.986Z,8.30
2018-10-02T00:10:22.701Z,8.20
2018-10-02T00:11:37.796Z,8.20
2018-10-02T00:14:57.594Z,8.20
2018-10-02T00:16:07.264Z,8.20
2018-10-02T00:17:17.148Z,8.10
2018-10-02T00:18:26.875Z,8.10
2018-10-02T00:19:36.465Z,8.00
2018-10-02T00:20:46.175Z,8.00
2018-10-02T00:21:55.976Z,8.00
2018-10-02T00:23:05.715Z,8.00
2018-10-02T00:24:15.321Z,8.00
2018-10-02T00:25:24.880Z,8.00
2018-10-02T00:26:34.313Z,8.00
2018-10-02T00:27:43.831Z,8.00
2018-10-02T00:28:53.358Z,8.10
2018-10-02T00:30:03.117Z,8.10
2018-10-02T00:31:12.778Z,8.10
2018-10-02T00:32:22.923Z,8.10
2018-10-02T00:33:32.650Z,8.00
2018-10-02T00:34:42.253Z,8.00
2018-10-02T00:35:51.635Z,7.90
2018-10-02T00:37:01.462Z,7.90
2018-10-02T00:38:10.928Z,7.90
2018-10-02T00:39:20.622Z,7.90
2018-10-02T00:40:34.040Z,8.00
2018-10-02T00:41:43.658Z,8.00
2018-10-02T00:42:53.397Z,8.10
2018-10-02T00:44:02.922Z,8.10
2018-10-02T00:45:12.494Z,8.20
2018-10-02T00:46:22.088Z,8.10
2018-10-02T00:47:31.959Z,8.10
2018-10-02T00:48:41.574Z,8.10
2018-10-02T00:49:51.185Z,8.10
2018-10-02T00:51:01.010Z,8.10
2018-10-02T00:52:10.645Z,8.10
2018-10-02T00:53:20.416Z,8.10
2018-10-02T00:54:29.876Z,8.10
2018-10-02T00:55:39.653Z,8.00
2018-10-02T00:56:49.337Z,8.00
2018-10-02T00:57:58.992Z,7.90
2018-10-02T00:59:08.744Z,8.00
2018-10-02T01:00:18.345Z,7.90
2018-10-02T01:01:28.049Z,8.00
2018-10-02T01:02:37.589Z,8.00
2018-10-02T01:03:47.386Z,8.00
2018-10-02T01:04:56.942Z,7.90
2018-10-02T01:06:06.803Z,8.00
2018-10-02T01:07:16.720Z,8.00
2018-10-02T01:08:26.584Z,7.90
2018-10-02T01:09:36.824Z,7.90
2018-10-02T01:10:46.961Z,7.90
2018-10-02T01:11:56.981Z,7.90
2018-10-02T01:13:07.787Z,7.90
2018-10-02T01:14:17.945Z,7.80
2018-10-02T01:15:28.604Z,7.80
2018-10-02T01:16:39.090Z,7.70
2018-10-02T01:17:48.852Z,7.80
2018-10-02T01:18:59.020Z,7.80
2018-10-02T01:20:09.765Z,7.70
2018-10-02T01:21:19.795Z,7.70
2018-10-02T01:22:29.844Z,7.70
2018-10-02T01:23:39.887Z,7.70
2018-10-02T01:24:49.894Z,7.70
2018-10-02T01:26:00.195Z,7.80
2018-10-02T01:27:10.149Z,7.70
2018-10-02T01:28:20.594Z,7.80
2018-10-02T01:29:30.599Z,7.80
2018-10-02T01:30:40.699Z,7.70
2018-10-02T01:31:50.566Z,7.80
2018-10-02T01:33:01.037Z,7.80
2018-10-02T01:34:11.359Z,7.80
2018-10-02T01:35:21.425Z,7.80
2018-10-02T01:36:31.875Z,7.80
2018-10-02T01:37:42.134Z,7.80
2018-10-02T01:38:52.487Z,7.80
2018-10-02T01:40:02.425Z,7.80
2018-10-02T01:41:18.814Z,7.70
2018-10-02T01:42:28.585Z,7.80
2018-10-02T01:43:38.148Z,7.80
2018-10-02T01:44:47.885Z,7.80
2018-10-02T01:46:03.314Z,7.70
2018-10-02T01:47:13.003Z,7.70
2018-10-02T01:48:22.729Z,7.80
2018-10-02T01:49:32.265Z,7.80
2018-10-02T01:50:41.992Z,7.80
2018-10-02T01:51:51.692Z,7.80
2018-10-02T01:53:01.420Z,7.90
2018-10-02T01:54:10.916Z,7.90
2018-10-02T01:55:20.700Z,7.90
2018-10-02T01:56:35.918Z,7.90
2018-10-02T01:57:46.230Z,7.90
2018-10-02T01:58:56.355Z,7.80
2018-10-02T02:00:06.218Z,7.70
2018-10-02T02:01:20.297Z,7.60
2018-10-02T02:02:30.376Z,7.60
2018-10-02T02:03:40.709Z,7.60
2018-10-02T02:04:50.726Z,7.50
2018-10-02T02:07:21.379Z,7.50
2018-10-02T02:08:31.401Z,7.60
2018-10-02T02:09:41.497Z,7.60
2018-10-02T02:10:51.495Z,7.60
2018-10-02T02:12:04.501Z,7.60
2018-10-02T02:13:14.809Z,7.60
2018-10-02T02:14:24.833Z,7.50
2018-10-02T02:15:35.077Z,7.50
2018-10-02T02:16:45.027Z,7.50
2018-10-02T02:17:58.945Z,7.50
2018-10-02T02:19:08.940Z,7.50
2018-10-02T02:20:19.000Z,7.50
2018-10-02T02:21:29.157Z,7.50
2018-10-02T02:22:43.008Z,7.50
2018-10-02T02:23:52.745Z,7.60
2018-10-02T02:25:02.733Z,7.50
2018-10-02T02:26:12.826Z,7.50
2018-10-02T02:27:23.085Z,7.40
2018-10-02T02:28:33.444Z,7.40
2018-10-02T02:29:43.632Z,7.40
2018-10-02T02:30:53.767Z,7.40
2018-10-02T02:32:04.003Z,7.30
2018-10-02T02:33:14.111Z,7.20
2018-10-02T02:34:24.081Z,7.20
2018-10-02T02:35:33.891Z,7.10
2018-10-02T02:36:44.278Z,7.10
2018-10-02T02:37:54.529Z,7.00
2018-10-02T02:39:05.282Z,7.00
2018-10-02T02:40:15.276Z,7.00
2018-10-02T02:41:25.536Z,7.00
2018-10-02T02:42:35.737Z,7.10
2018-10-02T02:43:45.553Z,7.00
2018-10-02T02:44:55.718Z,7.00
2018-10-02T02:46:05.910Z,6.90
2018-10-02T02:47:21.204Z,6.80
2018-10-02T02:48:36.421Z,6.90
2018-10-02T02:49:51.366Z,6.90
2018-10-02T02:51:06.434Z,6.80
2018-10-02T02:52:17.785Z,6.70
2018-10-02T02:53:27.373Z,6.80
2018-10-02T02:54:37.051Z,6.80
2018-10-02T02:55:47.406Z,6.80
2018-10-02T02:56:57.243Z,6.80
2018-10-02T02:58:06.815Z,6.80
2018-10-02T02:59:16.444Z,6.80
2018-10-02T03:00:25.872Z,6.80
2018-10-02T03:01:35.673Z,6.80
2018-10-02T03:02:45.206Z,6.80
2018-10-02T03:03:54.960Z,6.80
2018-10-02T03:05:04.790Z,6.90
2018-10-02T03:06:14.602Z,6.90
2018-10-02T03:07:24.387Z,7.00
2018-10-02T03:08:33.827Z,7.00
2018-10-02T03:09:43.488Z,6.90
2018-10-02T03:10:53.179Z,6.90
2018-10-02T03:12:02.725Z,6.90
2018-10-02T03:13:12.545Z,7.00
2018-10-02T03:14:22.248Z,6.90
2018-10-02T03:15:31.728Z,6.90
2018-10-02T03:16:41.308Z,6.90
2018-10-02T03:17:51.040Z,6.90
2018-10-02T03:19:00.779Z,6.80
2018-10-02T03:20:10.322Z,6.80
2018-10-02T03:21:19.892Z,6.90
2018-10-02T03:22:29.509Z,6.90
2018-10-02T03:23:39.305Z,6.80
2018-10-02T03:24:48.676Z,6.90
2018-10-02T03:25:58.452Z,6.90
2018-10-02T03:27:08.235Z,6.90
2018-10-02T03:28:17.985Z,6.90
2018-10-02T03:29:27.761Z,6.80
2018-10-02T03:30:37.508Z,6.90
2018-10-02T03:31:47.112Z,6.90
2018-10-02T03:32:56.651Z,6.90
2018-10-02T03:34:06.214Z,7.00
2018-10-02T03:35:15.781Z,6.90
2018-10-02T03:36:25.513Z,6.90
2018-10-02T03:37:35.133Z,6.90
2018-10-02T03:38:44.798Z,7.00
2018-10-02T03:39:54.553Z,7.00
2018-10-02T03:41:04.135Z,7.00
2018-10-02T03:42:13.659Z,7.00
2018-10-02T03:43:27.101Z,6.90
2018-10-02T03:44:36.637Z,7.00
2018-10-02T03:45:46.395Z,7.00
2018-10-02T03:46:56.090Z,7.00
2018-10-02T03:48:05.680Z,7.00
2018-10-02T03:49:15.426Z,7.00
2018-10-02T03:50:25.117Z,7.10
2018-10-02T03:51:34.960Z,7.00
2018-10-02T03:52:44.684Z,7.00
2018-10-02T03:53:54.442Z,7.00
2018-10-02T03:55:04.169Z,7.00
2018-10-02T03:56:13.786Z,7.00
2018-10-02T03:57:23.509Z,7.10
2018-10-02T03:58:33.172Z,7.10
2018-10-02T03:59:42.769Z,7.10
2018-10-02T04:00:52.441Z,7.00
2018-10-02T04:02:02.085Z,7.00
2018-10-02T04:03:11.617Z,7.00
2018-10-02T04:04:21.098Z,7.00
2018-10-02T04:05:30.927Z,7.00
2018-10-02T04:06:40.477Z,7.00
2018-10-02T04:07:50.224Z,7.00
2018-10-02T04:08:59.704Z,7.00
2018-10-02T04:10:09.346Z,6.90
2018-10-02T04:11:19.260Z,7.00
2018-10-02T04:12:29.126Z,7.00
2018-10-02T04:13:38.753Z,7.00
2018-10-02T04:14:48.334Z,7.00
2018-10-02T04:15:57.772Z,7.10
2018-10-02T04:17:07.435Z,7.00
2018-10-02T04:18:17.127Z,6.90
2018-10-02T04:19:26.893Z,6.90
2018-10-02T04:20:36.376Z,6.80
2018-10-02T04:21:46.181Z,6.80
2018-10-02T04:22:55.820Z,6.80
2018-10-02T04:24:07.192Z,6.80
2018-10-02T04:25:17.002Z,6.90
2018-10-02T04:26:32.582Z,6.90
2018-10-02T04:27:42.078Z,6.90
2018-10-02T04:28:51.842Z,7.00
2018-10-02T04:30:01.371Z,7.00
2018-10-02T04:31:10.932Z,6.90
2018-10-02T04:32:23.924Z,7.00
2018-10-02T04:33:33.598Z,6.90
2018-10-02T04:34:43.400Z,6.90
2018-10-02T04:35:53.028Z,6.90
2018-10-02T04:37:08.337Z,7.00
2018-10-02T04:38:18.041Z,7.00
2018-10-02T04:39:28.058Z,6.90
2018-10-02T04:40:44.309Z,6.90
2018-10-02T04:41:57.336Z,6.90
2018-10-02T04:43:07.069Z,7.00
2018-10-02T04:44:16.737Z,7.00
2018-10-02T04:45:26.303Z,7.00
2018-10-02T04:46:36.063Z,6.90
2018-10-02T04:47:52.748Z,6.90
2018-10-02T04:49:02.290Z,7.00
2018-10-02T04:50:11.983Z,6.90
2018-10-02T04:51:21.768Z,6.90
2018-10-02T04:52:31.371Z,7.00
2018-10-02T04:53:41.174Z,6.90
2018-10-02T04:54:50.914Z,6.90
2018-10-02T04:56:00.469Z,6.80
2018-10-02T04:57:10.075Z,6.80
2018-10-02T04:58:23.517Z,6.80
2018-10-02T04:59:33.166Z,6.80
2018-10-02T05:00:42.760Z,6.80
2018-10-02T05:01:52.300Z,6.80
2018-10-02T05:03:11.522Z,6.80
2018-10-02T05:04:21.280Z,6.80
2018-10-02T05:05:30.985Z,6.80
2018-10-02T05:06:40.773Z,6.90
2018-10-02T05:07:50.502Z,6.90
2018-10-02T05:09:00.161Z,6.80
2018-10-02T05:10:10.036Z,6.70
2018-10-02T05:11:20.280Z,6.60
2018-10-02T05:12:29.899Z,6.60
2018-10-02T05:13:39.664Z,6.60
2018-10-02T05:14:49.210Z,6.60
2018-10-02T05:15:58.889Z,6.50
2018-10-02T05:17:08.452Z,6.60
2018-10-02T05:18:18.238Z,6.60
2018-10-02T05:19:28.013Z,6.60
2018-10-02T05:20:38.019Z,6.60
2018-10-02T05:21:47.564Z,6.60
2018-10-02T05:22:57.127Z,6.60
2018-10-02T05:24:06.967Z,6.60
2018-10-02T05:25:16.638Z,6.60
2018-10-02T05:26:26.434Z,6.60
2018-10-02T05:27:36.125Z,6.60
2018-10-02T05:28:45.699Z,6.60
2018-10-02T05:29:55.394Z,6.60
2018-10-02T05:31:04.890Z,6.70
2018-10-02T05:32:14.693Z,6.70
2018-10-02T05:33:24.496Z,6.80
2018-10-02T05:34:34.214Z,6.80
2018-10-02T05:35:43.895Z,6.80
2018-10-02T05:36:53.545Z,6.70
2018-10-02T05:38:03.144Z,6.70
2018-10-02T05:39:12.956Z,6.60
2018-10-02T05:40:22.603Z,6.60
2018-10-02T05:41:32.367Z,6.60
2018-10-02T05:42:42.400Z,6.60
2018-10-02T05:43:51.848Z,6.60
2018-10-02T05:45:01.449Z,6.70
2018-10-02T05:46:11.112Z,6.70
2018-10-02T05:47:20.697Z,6.70
2018-10-02T05:48:30.312Z,6.80
2018-10-02T05:49:39.958Z,6.70
2018-10-02T05:50:49.819Z,6.70
2018-10-02T05:51:59.413Z,6.70
2018-10-02T05:53:09.067Z,6.70
2018-10-02T05:54:18.798Z,6.70
2018-10-02T05:55:28.374Z,6.60
2018-10-02T05:56:38.023Z,6.70
2018-10-02T05:57:47.509Z,6.80
2018-10-02T05:58:57.051Z,6.80
2018-10-02T06:00:06.840Z,6.80
2018-10-02T06:01:16.612Z,6.70
2018-10-02T06:02:35.118Z,6.70
2018-10-02T06:03:45.481Z,6.70
2018-10-02T06:04:55.181Z,6.70
2018-10-02T06:06:04.754Z,6.60
2018-10-02T06:07:14.358Z,6.60
2018-10-02T06:08:24.010Z,6.60
2018-10-02T06:09:33.504Z,6.70
2018-10-02T06:10:43.334Z,6.70
2018-10-02T06:11:53.140Z,6.60
2018-10-02T06:13:02.950Z,6.60
2018-10-02T06:14:12.723Z,6.60
2018-10-02T06:15:22.549Z,6.50
2018-10-02T06:16:32.475Z,6.50
2018-10-02T06:17:42.261Z,6.50
2018-10-02T06:18:55.919Z,6.60
2018-10-02T06:20:05.617Z,6.60
2018-10-02T06:21:15.305Z,6.60
2018-10-02T06:22:24.993Z,6.60
2018-10-02T06:23:34.928Z,6.60
2018-10-02T06:24:44.655Z,6.60
2018-10-02T06:25:54.297Z,6.60
2018-10-02T06:27:04.009Z,6.60
2018-10-02T06:28:13.535Z,6.70
2018-10-02T06:29:23.126Z,6.70
2018-10-02T06:30:32.675Z,6.60
2018-10-02T06:31:42.419Z,6.70
2018-10-02T06:32:52.226Z,6.60
2018-10-02T06:34:01.954Z,6.60
2018-10-02T06:35:11.555Z,6.60
2018-10-02T06:36:21.077Z,6.60
2018-10-02T06:37:30.841Z,6.70
2018-10-02T06:38:40.604Z,6.70
2018-10-02T06:39:50.414Z,6.70
2018-10-02T06:41:00.219Z,6.80
2018-10-02T06:42:09.617Z,6.70
2018-10-02T06:43:19.500Z,6.70
2018-10-02T06:44:29.861Z,6.70
2018-10-02T06:45:39.484Z,6.60
2018-10-02T06:46:49.178Z,6.60
2018-10-02T06:47:58.749Z,6.60
2018-10-02T06:49:08.441Z,6.70
2018-10-02T06:50:17.990Z,6.70
2018-10-02T06:51:27.598Z,6.70
2018-10-02T06:52:37.538Z,6.70
2018-10-02T06:53:46.827Z,6.70
2018-10-02T06:54:56.586Z,6.80
2018-10-02T06:56:06.545Z,6.90
2018-10-02T06:57:16.142Z,6.90
2018-10-02T06:58:25.739Z,6.70
2018-10-02T06:59:35.416Z,6.70
2018-10-02T07:00:45.127Z,6.80
2018-10-02T07:01:54.745Z,6.70
2018-10-02T07:03:04.561Z,6.70
2018-10-02T07:04:14.279Z,6.70
2018-10-02T07:05:24.783Z,6.70
2018-10-02T07:06:34.664Z,6.70
2018-10-02T07:07:44.297Z,6.70
2018-10-02T07:08:53.864Z,6.70
2018-10-02T07:10:03.790Z,6.80
2018-10-02T07:11:13.418Z,6.90
2018-10-02T07:12:23.364Z,6.80
2018-10-02T07:13:33.058Z,6.90
2018-10-02T07:14:42.798Z,6.80
2018-10-02T07:15:52.435Z,6.70
2018-10-02T07:17:02.166Z,6.80
2018-10-02T07:18:11.765Z,6.80
2018-10-02T07:19:21.268Z,6.80
2018-10-02T07:20:30.933Z,6.80
2018-10-02T07:21:40.722Z,6.90
2018-10-02T07:22:50.474Z,6.80
2018-10-02T07:24:03.826Z,6.90
2018-10-02T07:25:13.696Z,6.90
2018-10-02T07:26:23.515Z,6.90
2018-10-02T07:27:33.247Z,6.90
2018-10-02T07:28:42.752Z,6.90
2018-10-02T07:29:52.563Z,7.00
2018-10-02T07:31:02.272Z,7.10
2018-10-02T07:32:12.078Z,7.20
2018-10-02T07:33:21.726Z,7.20
2018-10-02T07:34:31.481Z,7.20
2018-10-02T07:35:41.225Z,7.30
2018-10-02T07:36:51.404Z,7.30
2018-10-02T07:38:01.227Z,7.20
2018-10-02T07:39:11.157Z,7.20
2018-10-02T07:40:21.005Z,7.40
2018-10-02T07:41:30.847Z,7.40
2018-10-02T07:42:40.652Z,7.50
2018-10-02T07:43:50.618Z,7.60
2018-10-02T07:45:00.355Z,7.70
2018-10-02T07:46:09.968Z,7.70
2018-10-02T07:47:19.814Z,7.70
2018-10-02T07:48:29.704Z,7.80
2018-10-02T07:49:39.305Z,7.90
2018-10-02T07:50:49.099Z,8.00
2018-10-02T07:51:58.588Z,8.00
2018-10-02T07:53:08.296Z,8.00
2018-10-02T07:54:18.220Z,7.90
2018-10-02T07:55:28.263Z,7.90
2018-10-02T07:56:37.898Z,7.80
2018-10-02T07:57:47.895Z,7.80
2018-10-02T07:58:57.626Z,7.80
2018-10-02T08:00:07.450Z,7.80
2018-10-02T08:01:17.157Z,7.90
2018-10-02T08:02:26.892Z,7.90
2018-10-02T08:03:36.638Z,7.80
2018-10-02T08:04:46.178Z,7.70
2018-10-02T08:05:56.041Z,7.70
2018-10-02T08:07:05.714Z,7.70
2018-10-02T08:08:15.386Z,7.70
2018-10-02T08:09:25.222Z,7.70
2018-10-02T08:10:34.997Z,7.60
2018-10-02T08:11:44.776Z,7.50
2018-10-02T08:12:54.374Z,7.40
2018-10-02T08:14:04.031Z,7.50
2018-10-02T08:15:13.871Z,7.50
2018-10-02T08:16:23.563Z,7.40
2018-10-02T08:17:33.262Z,7.50
2018-10-02T08:18:43.026Z,7.50
2018-10-02T08:19:52.564Z,7.50
2018-10-02T08:21:02.149Z,7.50
2018-10-02T08:22:11.950Z,7.50
2018-10-02T08:23:21.831Z,7.40
2018-10-02T08:24:31.720Z,7.40
2018-10-02T08:25:47.384Z,7.40
2018-10-02T08:26:56.940Z,7.30
2018-10-02T08:28:06.409Z,7.40
2018-10-02T08:29:16.062Z,7.40
2018-10-02T08:30:25.815Z,7.40
2018-10-02T08:31:35.302Z,7.40
2018-10-02T08:32:48.248Z,7.40
2018-10-02T08:33:57.955Z,7.50
2018-10-02T08:35:07.715Z,7.60
2018-10-02T08:36:17.336Z,7.80
2018-10-02T08:37:27.038Z,7.80
2018-10-02T08:38:36.828Z,7.80
2018-10-02T08:39:46.469Z,7.90
2018-10-02T08:40:56.017Z,8.00
2018-10-02T08:42:05.693Z,8.10
2018-10-02T08:43:15.369Z,8.10
2018-10-02T08:44:25.420Z,8.20
2018-10-02T08:45:35.325Z,8.20
2018-10-02T08:46:45.328Z,8.10
2018-10-02T08:47:54.937Z,8.10
2018-10-02T08:49:04.465Z,8.00
2018-10-02T08:50:13.935Z,8.00
2018-10-02T08:51:23.477Z,8.00
2018-10-02T08:52:33.131Z,8.10
2018-10-02T08:53:43.078Z,8.10
2018-10-02T08:54:52.544Z,8.10
2018-10-02T08:56:02.433Z,8.10
2018-10-02T08:57:12.197Z,8.00
2018-10-02T08:58:21.709Z,8.10
2018-10-02T08:59:31.666Z,8.10
2018-10-02T09:00:41.389Z,8.10
2018-10-02T09:01:50.975Z,8.20
2018-10-02T09:03:00.889Z,8.20
2018-10-02T09:04:10.537Z,8.20
2018-10-02T09:05:20.279Z,8.20
2018-10-02T09:06:30.084Z,8.30
2018-10-02T09:07:39.790Z,8.30
2018-10-02T09:08:49.303Z,8.30
2018-10-02T09:09:59.052Z,8.20
2018-10-02T09:11:08.898Z,8.30
2018-10-02T09:12:18.573Z,8.30
2018-10-02T09:13:28.566Z,8.30
2018-10-02T09:14:38.284Z,8.20
2018-10-02T09:15:47.895Z,8.30
2018-10-02T09:16:57.410Z,8.30
2018-10-02T09:18:07.040Z,8.30
2018-10-02T09:19:16.620Z,8.40
2018-10-02T09:20:26.291Z,8.30
2018-10-02T09:21:42.740Z,8.20
2018-10-02T09:22:52.455Z,8.30
2018-10-02T09:24:02.219Z,8.30
2018-10-02T09:25:12.009Z,8.40
2018-10-02T09:26:21.726Z,8.40
2018-10-02T09:27:31.627Z,8.50
2018-10-02T09:28:41.647Z,8.50
2018-10-02T09:29:56.485Z,8.60
2018-10-02T09:31:11.572Z,8.50
2018-10-02T09:32:30.438Z,8.60
2018-10-02T09:33:45.689Z,8.70
2018-10-02T09:35:00.680Z,8.70
2018-10-02T09:36:15.649Z,8.70
2018-10-02T09:37:30.571Z,8.70
2018-10-02T09:38:45.605Z,8.70
2018-10-02T09:40:00.612Z,8.80
2018-10-02T09:41:15.774Z,8.80
2018-10-02T09:42:30.822Z,8.90
2018-10-02T09:43:57.314Z,8.90
2018-10-02T09:45:06.903Z,8.80
2018-10-02T09:46:16.818Z,8.80
2018-10-02T09:47:26.410Z,8.80
2018-10-02T09:48:36.101Z,8.90
2018-10-02T09:49:45.862Z,8.90
2018-10-02T09:50:55.391Z,8.90
2018-10-02T09:52:04.821Z,8.90
2018-10-02T09:53:14.906Z,8.90
2018-10-02T09:54:24.601Z,8.90
2018-10-02T09:55:34.555Z,8.90
2018-10-02T09:56:45.363Z,8.90
2018-10-02T09:57:55.050Z,8.90
2018-10-02T09:59:04.583Z,8.90
2018-10-02T10:01:30.361Z,8.90
2018-10-02T10:02:40.267Z,8.90
2018-10-02T10:03:49.748Z,9.00
2018-10-02T10:04:59.438Z,9.10
2018-10-02T10:06:12.561Z,9.20
2018-10-02T10:07:22.261Z,9.20
2018-10-02T10:08:31.845Z,9.30
2018-10-02T10:09:41.640Z,9.40
2018-10-02T10:10:56.886Z,9.40
2018-10-02T10:12:06.669Z,9.40
2018-10-02T10:13:17.070Z,9.40
2018-10-02T10:14:26.691Z,9.40
2018-10-02T10:15:36.370Z,9.30
2018-10-02T10:16:46.097Z,9.40
2018-10-02T10:17:55.670Z,9.40
2018-10-02T10:19:05.642Z,9.50
2018-10-02T10:20:15.229Z,9.60
2018-10-02T10:21:24.833Z,9.60
2018-10-02T10:22:34.740Z,9.60
2018-10-02T10:23:44.490Z,9.60
2018-10-02T10:24:54.301Z,9.50
2018-10-02T10:26:04.086Z,9.50
2018-10-02T10:27:13.827Z,9.50
2018-10-02T10:28:23.635Z,9.50
2018-10-02T10:29:33.278Z,9.60
2018-10-02T10:30:42.938Z,9.60
2018-10-02T10:31:52.750Z,9.50
2018-10-02T10:33:02.419Z,9.60
2018-10-02T10:34:12.227Z,9.60
2018-10-02T10:35:22.132Z,9.70
2018-10-02T10:36:31.682Z,9.60
2018-10-02T10:37:41.521Z,9.60
2018-10-02T10:38:51.203Z,9.60
2018-10-02T10:40:00.951Z,9.70
2018-10-02T10:41:10.596Z,9.80
2018-10-02T10:42:20.360Z,9.80
2018-10-02T10:43:30.033Z,10.00
2018-10-02T10:44:39.649Z,10.20
2018-10-02T10:45:49.674Z,10.20
2018-10-02T10:46:59.590Z,10.10
2018-10-02T10:48:09.200Z,10.00
2018-10-02T10:49:18.642Z,9.90
2018-10-02T10:50:28.321Z,9.80
2018-10-02T10:51:37.858Z,9.70
2018-10-02T10:52:47.614Z,9.70
2018-10-02T10:53:57.215Z,9.80
2018-10-02T10:55:22.520Z,9.90
2018-10-02T10:56:32.219Z,10.00
2018-10-02T10:57:41.915Z,10.00
2018-10-02T10:58:51.817Z,10.10
2018-10-02T11:00:01.571Z,10.30
2018-10-02T11:01:11.075Z,10.40
2018-10-02T11:02:20.910Z,10.30
2018-10-02T11:03:30.366Z,10.20
2018-10-02T11:04:39.888Z,10.20
2018-10-02T11:05:49.554Z,10.20
2018-10-02T11:06:59.217Z,10.30
2018-10-02T11:08:08.759Z,10.20
2018-10-02T11:09:18.510Z,10.30
2018-10-02T11:10:28.333Z,10.30
2018-10-02T11:11:38.285Z,10.40
2018-10-02T11:12:48.485Z,10.50
2018-10-02T11:13:58.151Z,10.40
2018-10-02T11:15:07.931Z,10.40
2018-10-02T11:16:17.484Z,10.40
2018-10-02T11:17:26.995Z,10.60
2018-10-02T11:18:36.579Z,10.70
2018-10-02T11:19:46.220Z,10.80
2018-10-02T11:20:55.813Z,10.70
2018-10-02T11:22:05.692Z,10.70
2018-10-02T11:23:18.997Z,10.70
2018-10-02T11:24:28.674Z,10.60
2018-10-02T11:25:38.401Z,10.50
2018-10-02T11:26:47.993Z,10.50
2018-10-02T11:27:57.560Z,10.40
2018-10-02T11:29:11.182Z,10.40
2018-10-02T11:30:20.821Z,10.50
2018-10-02T11:31:30.566Z,10.60
2018-10-02T11:32:40.526Z,10.60
2018-10-02T11:33:50.159Z,10.70
2018-10-02T11:34:59.937Z,11.00
2018-10-02T11:36:13.594Z,11.20
2018-10-02T11:37:23.630Z,11.00
2018-10-02T11:38:33.377Z,11.10
2018-10-02T11:39:42.915Z,11.10
2018-10-02T11:40:52.800Z,11.00
2018-10-02T11:42:02.678Z,11.10
2018-10-02T11:43:12.401Z,11.00
2018-10-02T11:44:22.359Z,10.80
2018-10-02T11:45:32.216Z,10.80
2018-10-02T11:46:41.746Z,10.70
2018-10-02T11:47:51.457Z,10.60
2018-10-02T11:49:01.073Z,10.60
2018-10-02T11:50:10.720Z,10.50
2018-10-02T11:51:20.422Z,10.50
2018-10-02T11:52:30.314Z,10.50
2018-10-02T11:53:39.701Z,10.50
2018-10-02T11:54:49.335Z,10.50
2018-10-02T11:55:59.055Z,10.60
2018-10-02T11:57:08.608Z,10.60
2018-10-02T11:58:18.481Z,10.70
2018-10-02T11:59:27.951Z,10.70
2018-10-02T12:00:37.760Z,10.70
2018-10-02T12:01:47.355Z,10.80
2018-10-02T12:02:57.098Z,10.90
2018-10-02T12:04:06.934Z,11.00
2018-10-02T12:05:16.636Z,10.90
2018-10-02T12:06:26.389Z,10.80
2018-10-02T12:07:36.060Z,10.80
2018-10-02T12:08:45.526Z,10.90
2018-10-02T12:09:55.086Z,10.90
2018-10-02T12:11:04.875Z,10.80
2018-10-02T12:12:14.538Z,10.70
2018-10-02T12:13:24.371Z,10.70
2018-10-02T12:14:33.990Z,10.60
2018-10-02T12:15:43.785Z,10.60
2018-10-02T12:16:53.563Z,10.60
2018-10-02T12:18:03.164Z,10.60
2018-10-02T12:19:13.023Z,10.60
2018-10-02T12:20:22.841Z,10.60
2018-10-02T12:21:32.513Z,10.70
2018-10-02T12:22:42.155Z,10.70
2018-10-02T12:23:51.894Z,10.90
2018-10-02T12:25:01.636Z,11.00
2018-10-02T12:26:11.430Z,11.00
2018-10-02T12:27:21.312Z,11.10
2018-10-02T12:28:31.012Z,11.10
2018-10-02T12:29:40.635Z,11.30
2018-10-02T12:30:50.254Z,11.40
2018-10-02T12:32:00.003Z,11.50
2018-10-02T12:33:09.745Z,11.60
2018-10-02T12:34:19.383Z,11.60
2018-10-02T12:35:29.310Z,11.60
2018-10-02T12:36:39.283Z,11.80
2018-10-02T12:37:48.908Z,11.90
2018-10-02T12:38:58.730Z,12.00
2018-10-02T12:40:08.420Z,12.00
2018-10-02T12:41:18.001Z,12.10
2018-10-02T12:42:27.782Z,12.40
2018-10-02T12:43:37.529Z,12.60
2018-10-02T12:44:47.215Z,12.80
2018-10-02T12:45:56.940Z,12.90
2018-10-02T12:47:06.745Z,13.00
2018-10-02T12:48:16.567Z,13.10
2018-10-02T12:49:26.237Z,12.80
2018-10-02T12:50:36.003Z,12.70
2018-10-02T12:51:45.733Z,12.60
2018-10-02T12:52:55.249Z,12.70
2018-10-02T12:54:08.570Z,12.60
2018-10-02T12:55:18.120Z,12.30
2018-10-02T12:56:28.000Z,12.00
2018-10-02T12:57:37.755Z,12.10
2018-10-02T12:58:47.209Z,12.10
2018-10-02T12:59:56.767Z,12.00
2018-10-02T13:01:06.534Z,12.00
2018-10-02T13:02:16.207Z,12.10
2018-10-02T13:03:26.019Z,12.10
2018-10-02T13:04:39.343Z,12.10
2018-10-02T13:05:49.037Z,12.10
2018-10-02T13:06:58.767Z,11.90
2018-10-02T13:08:08.381Z,11.80
2018-10-02T13:09:18.028Z,11.80
2018-10-02T13:10:27.709Z,11.90
2018-10-02T13:11:37.474Z,12.00
2018-10-02T13:12:46.954Z,12.00
2018-10-02T13:13:56.593Z,11.80
2018-10-02T13:15:06.502Z,11.70
2018-10-02T13:16:15.990Z,11.70
2018-10-02T13:17:29.171Z,11.60
2018-10-02T13:18:38.642Z,11.70
2018-10-02T13:19:48.306Z,11.60
2018-10-02T13:20:57.858Z,11.60
2018-10-02T13:22:07.585Z,11.80
2018-10-02T13:23:17.268Z,12.00
2018-10-02T13:24:26.945Z,12.10
2018-10-02T13:25:36.729Z,12.10
2018-10-02T13:26:46.350Z,12.30
2018-10-02T13:28:01.515Z,12.30
2018-10-02T13:29:10.994Z,12.30
2018-10-02T13:30:20.772Z,12.20
2018-10-02T13:31:30.582Z,12.20
2018-10-02T13:32:44.025Z,12.10
2018-10-02T13:33:53.818Z,12.20
2018-10-02T13:35:03.642Z,12.30
2018-10-02T13:36:13.144Z,12.30
2018-10-02T13:37:22.977Z,12.30
2018-10-02T13:38:33.022Z,12.30
2018-10-02T13:39:42.853Z,12.30
2018-10-02T13:40:52.431Z,12.40
2018-10-02T13:42:02.132Z,12.10
2018-10-02T13:43:11.952Z,12.10
2018-10-02T13:44:21.801Z,12.00
2018-10-02T13:45:31.542Z,11.90
2018-10-02T13:46:41.169Z,12.10
2018-10-02T13:47:50.811Z,12.10
2018-10-02T13:49:00.575Z,12.10
2018-10-02T13:50:10.314Z,12.10
2018-10-02T13:51:20.079Z,12.20
2018-10-02T13:52:29.777Z,12.20
2018-10-02T13:53:39.354Z,12.20
2018-10-02T13:54:48.877Z,12.10
2018-10-02T13:55:58.673Z,12.10
2018-10-02T13:57:08.152Z,12.10
2018-10-02T13:58:17.738Z,12.00
2018-10-02T13:59:27.627Z,12.00
2018-10-02T14:00:37.312Z,12.00
2018-10-02T14:01:46.918Z,11.90
2018-10-02T14:02:56.605Z,11.80
2018-10-02T14:04:06.586Z,11.90
2018-10-02T14:05:16.118Z,11.90
2018-10-02T14:06:25.895Z,11.90
2018-10-02T14:07:35.404Z,11.90
2018-10-02T14:08:44.997Z,11.90
2018-10-02T14:09:54.866Z,11.90
2018-10-02T14:11:04.519Z,11.90
2018-10-02T14:12:14.236Z,11.80
2018-10-02T14:13:23.781Z,11.80
2018-10-02T14:14:33.386Z,11.90
2018-10-02T14:15:43.154Z,11.80
2018-10-02T14:16:52.742Z,11.80
2018-10-02T14:18:02.619Z,11.90
2018-10-02T14:19:12.187Z,11.90
2018-10-02T14:20:21.968Z,11.90
2018-10-02T14:21:31.607Z,12.00
2018-10-02T14:22:41.282Z,11.90
2018-10-02T14:23:51.169Z,12.00
2018-10-02T14:25:00.887Z,12.00
2018-10-02T14:26:10.499Z,12.00
2018-10-02T14:27:20.057Z,11.90
2018-10-02T14:28:29.618Z,12.00
2018-10-02T14:29:39.354Z,12.00
2018-10-02T14:30:49.233Z,12.00
2018-10-02T14:31:59.235Z,12.00
2018-10-02T14:33:14.158Z,12.10
2018-10-02T14:34:23.827Z,12.20
2018-10-02T14:35:33.675Z,12.30
2018-10-02T14:36:43.349Z,12.20
2018-10-02T14:37:53.071Z,12.10
2018-10-02T14:39:03.194Z,12.10
2018-10-02T14:40:12.831Z,12.00
2018-10-02T14:41:22.565Z,11.90
2018-10-02T14:42:32.397Z,11.90
2018-10-02T14:43:42.152Z,11.90
2018-10-02T14:44:52.004Z,11.90
2018-10-02T14:46:01.577Z,11.90
2018-10-02T14:47:11.418Z,11.90
2018-10-02T14:48:21.120Z,11.90
2018-10-02T14:49:30.949Z,11.90
2018-10-02T14:50:40.513Z,11.90
2018-10-02T14:51:50.072Z,11.90
2018-10-02T14:53:00.145Z,11.80
2018-10-02T14:54:09.896Z,11.80
2018-10-02T14:55:19.461Z,11.80
2018-10-02T14:56:29.312Z,11.80
2018-10-02T14:57:38.942Z,11.70
2018-10-02T14:58:48.738Z,11.70
2018-10-02T14:59:58.492Z,11.70
2018-10-02T15:01:08.428Z,11.70
2018-10-02T15:02:18.097Z,11.70
2018-10-02T15:03:27.986Z,11.70
2018-10-02T15:04:37.821Z,11.70
2018-10-02T15:05:47.595Z,11.80
2018-10-02T15:06:57.159Z,11.80
2018-10-02T15:08:07.073Z,11.90
2018-10-02T15:09:16.918Z,11.80
2018-10-02T15:10:26.912Z,11.80
2018-10-02T15:11:36.794Z,11.70
2018-10-02T15:12:46.313Z,11.70
2018-10-02T15:13:56.022Z,11.70
2018-10-02T15:15:06.152Z,11.60
2018-10-02T15:16:15.866Z,11.60
2018-10-02T15:17:25.587Z,11.60
2018-10-02T15:18:35.393Z,11.60
2018-10-02T15:19:44.985Z,11.60
2018-10-02T15:20:54.738Z,11.60
2018-10-02T15:22:04.310Z,11.70
2018-10-02T15:23:13.889Z,11.70
2018-10-02T15:24:23.657Z,11.60
2018-10-02T15:25:33.145Z,11.70
2018-10-02T15:26:42.718Z,11.60
2018-10-02T15:27:52.399Z,11.70
2018-10-02T15:29:02.156Z,11.70